sensor_id;sensor_type;location;lat;lon;timestamp;pressure;altitude;pressure_sealevel;temperature
49785;BMP280;35679;38.732;-121.358;2023-03-01T00:02:25;100433.75;;;11.58
49785;BMP280;35679;38.732;-121.358;2023-03-01T00:05:14;100412.44;;;11.59
49785;BMP280;35679;38.732;-121.358;2023-03-01T00:08:04;100424.00;;;11.58
49785;BMP280;35679;38.732;-121.358;2023-03-01T00:13:58;100414.63;;;11.56
49785;BMP280;35679;38.732;-121.358;2023-03-01T00:16:50;100410.19;;;11.56
49785;BMP280;35679;38.732;-121.358;2023-03-01T00:19:39;100410.97;;;11.57
49785;BMP280;35679;38.732;-121.358;2023-03-01T00:22:29;100404.06;;;11.56
49785;BMP280;35679;38.732;-121.358;2023-03-01T00:25:18;100405.69;;;11.57
49785;BMP280;35679;38.732;-121.358;2023-03-01T00:28:08;100395.94;;;11.57
49785;BMP280;35679;38.732;-121.358;2023-03-01T00:31:35;100405.69;;;11.57
49785;BMP280;35679;38.732;-121.358;2023-03-01T00:34:17;100403.88;;;11.57
49785;BMP280;35679;38.732;-121.358;2023-03-01T00:37:07;100440.03;;;11.57
49785;BMP280;35679;38.732;-121.358;2023-03-01T00:39:56;100444.34;;;11.58
49785;BMP280;35679;38.732;-121.358;2023-03-01T00:42:45;100453.25;;;11.57
49785;BMP280;35679;38.732;-121.358;2023-03-01T00:45:36;100452.59;;;11.55
49785;BMP280;35679;38.732;-121.358;2023-03-01T00:48:25;100447.31;;;11.55
49785;BMP280;35679;38.732;-121.358;2023-03-01T00:51:20;100435.75;;;11.56
49785;BMP280;35679;38.732;-121.358;2023-03-01T00:54:10;100434.56;;;11.58
49785;BMP280;35679;38.732;-121.358;2023-03-01T00:56:59;100430.94;;;11.59
49785;BMP280;35679;38.732;-121.358;2023-03-01T00:59:48;100425.19;;;11.56
49785;BMP280;35679;38.732;-121.358;2023-03-01T01:02:38;100417.25;;;11.56
49785;BMP280;35679;38.732;-121.358;2023-03-01T01:05:27;100420.09;;;11.54
49785;BMP280;35679;38.732;-121.358;2023-03-01T01:08:17;100421.91;;;11.54
49785;BMP280;35679;38.732;-121.358;2023-03-01T01:11:09;100419.91;;;11.56
49785;BMP280;35679;38.732;-121.358;2023-03-01T01:13:59;100412.97;;;11.55
49785;BMP280;35679;38.732;-121.358;2023-03-01T01:16:49;100418.25;;;11.55
49785;BMP280;35679;38.732;-121.358;2023-03-01T01:19:38;100419.44;;;11.52
49785;BMP280;35679;38.732;-121.358;2023-03-01T01:22:27;100421.91;;;11.54
49785;BMP280;35679;38.732;-121.358;2023-03-01T01:25:17;100420.44;;;11.51
49785;BMP280;35679;38.732;-121.358;2023-03-01T01:28:07;100419.44;;;11.52
49785;BMP280;35679;38.732;-121.358;2023-03-01T01:30:56;100415.00;;;11.53
49785;BMP280;35679;38.732;-121.358;2023-03-01T01:33:46;100407.88;;;11.53
49785;BMP280;35679;38.732;-121.358;2023-03-01T01:36:36;100409.88;;;11.51
49785;BMP280;35679;38.732;-121.358;2023-03-01T01:39:25;100405.03;;;11.55
49785;BMP280;35679;38.732;-121.358;2023-03-01T01:42:18;100399.94;;;11.53
49785;BMP280;35679;38.732;-121.358;2023-03-01T01:45:35;100388.56;;;11.53
49785;BMP280;35679;38.732;-121.358;2023-03-01T01:48:32;100379.63;;;11.54
49785;BMP280;35679;38.732;-121.358;2023-03-01T01:51:32;100385.94;;;11.53
49785;BMP280;35679;38.732;-121.358;2023-03-01T01:54:31;100386.09;;;11.51
49785;BMP280;35679;38.732;-121.358;2023-03-01T01:57:32;100390.72;;;11.49
49785;BMP280;35679;38.732;-121.358;2023-03-01T02:00:29;100379.00;;;11.52
49785;BMP280;35679;38.732;-121.358;2023-03-01T02:03:23;100375.53;;;11.51
49785;BMP280;35679;38.732;-121.358;2023-03-01T02:06:17;100366.78;;;11.51
49785;BMP280;35679;38.732;-121.358;2023-03-01T02:09:12;100356.22;;;11.51
49785;BMP280;35679;38.732;-121.358;2023-03-01T02:12:03;100354.53;;;11.50
49785;BMP280;35679;38.732;-121.358;2023-03-01T02:14:54;100352.91;;;11.49
49785;BMP280;35679;38.732;-121.358;2023-03-01T02:17:43;100351.91;;;11.50
49785;BMP280;35679;38.732;-121.358;2023-03-01T02:20:39;100355.22;;;11.52
49785;BMP280;35679;38.732;-121.358;2023-03-01T02:23:34;100355.41;;;11.50
49785;BMP280;35679;38.732;-121.358;2023-03-01T02:26:35;100357.88;;;11.52
49785;BMP280;35679;38.732;-121.358;2023-03-01T02:29:27;100358.06;;;11.50
49785;BMP280;35679;38.732;-121.358;2023-03-01T02:32:17;100368.75;;;11.49
49785;BMP280;35679;38.732;-121.358;2023-03-01T02:35:16;100360.50;;;11.52
49785;BMP280;35679;38.732;-121.358;2023-03-01T02:38:08;100354.84;;;11.55
49785;BMP280;35679;38.732;-121.358;2023-03-01T02:41:00;100357.50;;;11.55
49785;BMP280;35679;38.732;-121.358;2023-03-01T02:43:50;100355.84;;;11.54
49785;BMP280;35679;38.732;-121.358;2023-03-01T02:46:46;100351.59;;;11.53
49785;BMP280;35679;38.732;-121.358;2023-03-01T02:49:37;100348.94;;;11.53
49785;BMP280;35679;38.732;-121.358;2023-03-01T02:52:34;100329.44;;;11.54
49785;BMP280;35679;38.732;-121.358;2023-03-01T02:55:29;100324.34;;;11.52
49785;BMP280;35679;38.732;-121.358;2023-03-01T02:58:19;100323.03;;;11.48
49785;BMP280;35679;38.732;-121.358;2023-03-01T03:01:09;100325.88;;;11.47
49785;BMP280;35679;38.732;-121.358;2023-03-01T03:04:00;100330.78;;;11.50
49785;BMP280;35679;38.732;-121.358;2023-03-01T03:06:52;100330.63;;;11.51
49785;BMP280;35679;38.732;-121.358;2023-03-01T03:09:42;100344.97;;;11.49
49785;BMP280;35679;38.732;-121.358;2023-03-01T03:12:32;100347.81;;;11.47
49785;BMP280;35679;38.732;-121.358;2023-03-01T03:15:23;100355.53;;;11.49
49785;BMP280;35679;38.732;-121.358;2023-03-01T03:18:14;100351.91;;;11.50
49785;BMP280;35679;38.732;-121.358;2023-03-01T03:21:08;100340.38;;;11.51
49785;BMP280;35679;38.732;-121.358;2023-03-01T03:23:59;100346.63;;;11.50
49785;BMP280;35679;38.732;-121.358;2023-03-01T03:26:48;100346.00;;;11.48
49785;BMP280;35679;38.732;-121.358;2023-03-01T03:29:37;100353.94;;;11.48
49785;BMP280;35679;38.732;-121.358;2023-03-01T03:32:26;100347.63;;;11.49
49785;BMP280;35679;38.732;-121.358;2023-03-01T03:35:16;100355.53;;;11.49
49785;BMP280;35679;38.732;-121.358;2023-03-01T03:38:07;100343.34;;;11.48
49785;BMP280;35679;38.732;-121.358;2023-03-01T03:41:06;100359.22;;;11.48
49785;BMP280;35679;38.732;-121.358;2023-03-01T03:43:56;100362.47;;;11.50
49785;BMP280;35679;38.732;-121.358;2023-03-01T03:46:45;100362.47;;;11.50
49785;BMP280;35679;38.732;-121.358;2023-03-01T03:49:34;100359.22;;;11.48
49785;BMP280;35679;38.732;-121.358;2023-03-01T03:52:23;100350.44;;;11.47
49785;BMP280;35679;38.732;-121.358;2023-03-01T03:55:13;100354.28;;;11.45
49785;BMP280;35679;38.732;-121.358;2023-03-01T03:58:02;100350.63;;;11.46
49785;BMP280;35679;38.732;-121.358;2023-03-01T04:00:56;100347.34;;;11.44
49785;BMP280;35679;38.732;-121.358;2023-03-01T04:03:46;100349.00;;;11.45
49785;BMP280;35679;38.732;-121.358;2023-03-01T04:06:35;100365.84;;;11.44
49785;BMP280;35679;38.732;-121.358;2023-03-01T04:09:24;100370.97;;;11.45
49785;BMP280;35679;38.732;-121.358;2023-03-01T04:12:14;100366.84;;;11.43
49785;BMP280;35679;38.732;-121.358;2023-03-01T04:15:07;100371.09;;;11.44
49785;BMP280;35679;38.732;-121.358;2023-03-01T04:18:04;100368.47;;;11.44
49785;BMP280;35679;38.732;-121.358;2023-03-01T04:20:53;100367.47;;;11.45
49785;BMP280;35679;38.732;-121.358;2023-03-01T04:23:43;100359.94;;;11.42
49785;BMP280;35679;38.732;-121.358;2023-03-01T04:26:33;100358.09;;;11.42
49785;BMP280;35679;38.732;-121.358;2023-03-01T04:29:22;100367.66;;;11.43
49785;BMP280;35679;38.732;-121.358;2023-03-01T04:32:11;100365.84;;;11.44
49785;BMP280;35679;38.732;-121.358;2023-03-01T04:35:02;100371.56;;;11.47
49785;BMP280;35679;38.732;-121.358;2023-03-01T04:37:52;100362.84;;;11.47
49785;BMP280;35679;38.732;-121.358;2023-03-01T04:40:41;100363.84;;;11.46
49785;BMP280;35679;38.732;-121.358;2023-03-01T04:43:32;100369.78;;;11.48
49785;BMP280;35679;38.732;-121.358;2023-03-01T04:46:22;100364.66;;;11.46
49785;BMP280;35679;38.732;-121.358;2023-03-01T04:49:12;100369.94;;;11.46
49785;BMP280;35679;38.732;-121.358;2023-03-01T04:52:02;100365.66;;;11.45
49785;BMP280;35679;38.732;-121.358;2023-03-01T04:54:51;100350.63;;;11.46
49785;BMP280;35679;38.732;-121.358;2023-03-01T04:57:40;100351.63;;;11.45
49785;BMP280;35679;38.732;-121.358;2023-03-01T05:00:30;100334.31;;;11.42
49785;BMP280;35679;38.732;-121.358;2023-03-01T05:03:20;100343.09;;;11.43
49785;BMP280;35679;38.732;-121.358;2023-03-01T05:06:10;100354.84;;;11.40
49785;BMP280;35679;38.732;-121.358;2023-03-01T05:09:00;100338.97;;;11.40
49785;BMP280;35679;38.732;-121.358;2023-03-01T05:11:49;100350.16;;;11.42
49785;BMP280;35679;38.732;-121.358;2023-03-01T05:14:41;100346.72;;;11.42
49785;BMP280;35679;38.732;-121.358;2023-03-01T05:17:30;100346.06;;;11.40
49785;BMP280;35679;38.732;-121.358;2023-03-01T05:20:20;100342.63;;;11.39
49785;BMP280;35679;38.732;-121.358;2023-03-01T05:23:12;100344.41;;;11.39
49785;BMP280;35679;38.732;-121.358;2023-03-01T05:26:03;100348.09;;;11.38
49785;BMP280;35679;38.732;-121.358;2023-03-01T05:28:56;100354.19;;;11.38
49785;BMP280;35679;38.732;-121.358;2023-03-01T05:31:47;100344.41;;;11.39
49785;BMP280;35679;38.732;-121.358;2023-03-01T05:34:37;100349.69;;;11.39
49785;BMP280;35679;38.732;-121.358;2023-03-01T05:37:27;100350.53;;;11.39
49785;BMP280;35679;38.732;-121.358;2023-03-01T05:40:19;100349.69;;;11.39
49785;BMP280;35679;38.732;-121.358;2023-03-01T05:43:09;100344.41;;;11.39
49785;BMP280;35679;38.732;-121.358;2023-03-01T05:45:59;100333.06;;;11.38
49785;BMP280;35679;38.732;-121.358;2023-03-01T05:48:49;100330.59;;;11.37
49785;BMP280;35679;38.732;-121.358;2023-03-01T05:51:38;100333.25;;;11.37
49785;BMP280;35679;38.732;-121.358;2023-03-01T05:54:28;100331.59;;;11.36
49785;BMP280;35679;38.732;-121.358;2023-03-01T05:57:17;100329.94;;;11.35
49785;BMP280;35679;38.732;-121.358;2023-03-01T06:00:07;100332.25;;;11.38
49785;BMP280;35679;38.732;-121.358;2023-03-01T06:03:01;100327.78;;;11.38
49785;BMP280;35679;38.732;-121.358;2023-03-01T06:05:56;100326.78;;;11.39
49785;BMP280;35679;38.732;-121.358;2023-03-01T06:08:45;100319.03;;;11.38
49785;BMP280;35679;38.732;-121.358;2023-03-01T06:11:35;100313.75;;;11.38
49785;BMP280;35679;38.732;-121.358;2023-03-01T06:14:25;100306.19;;;11.35
49785;BMP280;35679;38.732;-121.358;2023-03-01T06:17:14;100305.19;;;11.36
49785;BMP280;35679;38.732;-121.358;2023-03-01T06:22:57;100300.91;;;11.35
49785;BMP280;35679;38.732;-121.358;2023-03-01T06:25:48;100292.16;;;11.34
49785;BMP280;35679;38.732;-121.358;2023-03-01T06:28:38;100300.91;;;11.35
49785;BMP280;35679;38.732;-121.358;2023-03-01T06:31:27;100294.34;;;11.31
49785;BMP280;35679;38.732;-121.358;2023-03-01T06:34:16;100297.44;;;11.34
49785;BMP280;35679;38.732;-121.358;2023-03-01T06:37:06;100300.28;;;11.33
49785;BMP280;35679;38.732;-121.358;2023-03-01T06:39:56;100302.06;;;11.32
49785;BMP280;35679;38.732;-121.358;2023-03-01T06:42:48;100300.81;;;11.28
49785;BMP280;35679;38.732;-121.358;2023-03-01T06:45:37;100300.63;;;11.30
49785;BMP280;35679;38.732;-121.358;2023-03-01T06:48:27;100296.34;;;11.29
49785;BMP280;35679;38.732;-121.358;2023-03-01T06:51:16;100295.72;;;11.27
49785;BMP280;35679;38.732;-121.358;2023-03-01T06:54:05;100292.88;;;11.28
49785;BMP280;35679;38.732;-121.358;2023-03-01T06:56:55;100282.13;;;11.30
49785;BMP280;35679;38.732;-121.358;2023-03-01T06:59:44;100287.78;;;11.27
49785;BMP280;35679;38.732;-121.358;2023-03-01T07:02:34;100282.88;;;11.24
49785;BMP280;35679;38.732;-121.358;2023-03-01T07:05:24;100291.44;;;11.26
49785;BMP280;35679;38.732;-121.358;2023-03-01T07:08:13;100289.13;;;11.23
49785;BMP280;35679;38.732;-121.358;2023-03-01T07:11:03;100286.50;;;11.23
49785;BMP280;35679;38.732;-121.358;2023-03-01T07:13:52;100287.69;;;11.20
49785;BMP280;35679;38.732;-121.358;2023-03-01T07:16:42;100286.88;;;11.20
49785;BMP280;35679;38.732;-121.358;2023-03-01T07:19:31;100281.78;;;11.18
49785;BMP280;35679;38.732;-121.358;2023-03-01T07:22:20;100281.97;;;11.17
49785;BMP280;35679;38.732;-121.358;2023-03-01T07:25:10;100284.94;;;11.14
49785;BMP280;35679;38.732;-121.358;2023-03-01T07:27:59;100287.59;;;11.14
49785;BMP280;35679;38.732;-121.358;2023-03-01T07:30:49;100290.03;;;11.15
49785;BMP280;35679;38.732;-121.358;2023-03-01T07:33:38;100298.81;;;11.16
49785;BMP280;35679;38.732;-121.358;2023-03-01T07:36:28;100306.25;;;11.12
49785;BMP280;35679;38.732;-121.358;2023-03-01T07:39:17;100301.78;;;11.13
49785;BMP280;35679;38.732;-121.358;2023-03-01T07:42:07;100295.03;;;11.10
49785;BMP280;35679;38.732;-121.358;2023-03-01T07:44:56;100292.59;;;11.09
49785;BMP280;35679;38.732;-121.358;2023-03-01T07:47:45;100296.41;;;11.07
49785;BMP280;35679;38.732;-121.358;2023-03-01T07:50:34;100290.47;;;11.05
49785;BMP280;35679;38.732;-121.358;2023-03-01T07:53:24;100298.25;;;11.06
49785;BMP280;35679;38.732;-121.358;2023-03-01T07:56:14;100291.50;;;11.04
49785;BMP280;35679;38.732;-121.358;2023-03-01T07:59:05;100297.97;;;11.01
49785;BMP280;35679;38.732;-121.358;2023-03-01T08:01:55;100292.69;;;11.01
49785;BMP280;35679;38.732;-121.358;2023-03-01T08:04:45;100285.75;;;11.00
49785;BMP280;35679;38.732;-121.358;2023-03-01T08:07:34;100283.47;;;10.97
49785;BMP280;35679;38.732;-121.358;2023-03-01T08:10:24;100284.94;;;11.00
49785;BMP280;35679;38.732;-121.358;2023-03-01T08:13:13;100279.50;;;11.01
49785;BMP280;35679;38.732;-121.358;2023-03-01T08:16:03;100287.13;;;10.96
49785;BMP280;35679;38.732;-121.358;2023-03-01T08:18:53;100280.03;;;10.97
49785;BMP280;35679;38.732;-121.358;2023-03-01T08:21:45;100283.47;;;10.97
49785;BMP280;35679;38.732;-121.358;2023-03-01T08:24:34;100283.47;;;10.97
49785;BMP280;35679;38.732;-121.358;2023-03-01T08:27:23;100284.66;;;10.95
49785;BMP280;35679;38.732;-121.358;2023-03-01T08:30:13;100296.03;;;10.95
49785;BMP280;35679;38.732;-121.358;2023-03-01T08:33:02;100290.09;;;10.93
49785;BMP280;35679;38.732;-121.358;2023-03-01T08:35:51;100291.75;;;10.94
49785;BMP280;35679;38.732;-121.358;2023-03-01T08:38:41;100287.66;;;10.92
49785;BMP280;35679;38.732;-121.358;2023-03-01T08:41:30;100289.50;;;10.91
49785;BMP280;35679;38.732;-121.358;2023-03-01T08:44:19;100284.22;;;10.91
49785;BMP280;35679;38.732;-121.358;2023-03-01T08:47:09;100286.84;;;10.91
49785;BMP280;35679;38.732;-121.358;2023-03-01T08:49:59;100281.56;;;10.91
49785;BMP280;35679;38.732;-121.358;2023-03-01T08:52:49;100281.91;;;10.88
49785;BMP280;35679;38.732;-121.358;2023-03-01T08:55:38;100282.91;;;10.87
49785;BMP280;35679;38.732;-121.358;2023-03-01T08:58:27;100289.63;;;10.90
49785;BMP280;35679;38.732;-121.358;2023-03-01T09:01:18;100278.66;;;10.86
49785;BMP280;35679;38.732;-121.358;2023-03-01T09:04:09;100278.66;;;10.86
49785;BMP280;35679;38.732;-121.358;2023-03-01T09:06:56;100283.28;;;10.84
49785;BMP280;35679;38.732;-121.358;2023-03-01T09:09:46;100276.53;;;10.82
49785;BMP280;35679;38.732;-121.358;2023-03-01T09:12:35;100277.34;;;10.82
49785;BMP280;35679;38.732;-121.358;2023-03-01T09:15:24;100278.19;;;10.83
49785;BMP280;35679;38.732;-121.358;2023-03-01T09:18:14;100283.47;;;10.83
49785;BMP280;35679;38.732;-121.358;2023-03-01T09:21:09;100282.63;;;10.82
49785;BMP280;35679;38.732;-121.358;2023-03-01T09:23:58;100269.81;;;10.79
49785;BMP280;35679;38.732;-121.358;2023-03-01T09:26:48;100277.53;;;10.81
49785;BMP280;35679;38.732;-121.358;2023-03-01T09:29:38;100278.53;;;10.80
49785;BMP280;35679;38.732;-121.358;2023-03-01T09:32:30;100283.97;;;10.78
49785;BMP280;35679;38.732;-121.358;2023-03-01T09:35:20;100284.97;;;10.77
49785;BMP280;35679;38.732;-121.358;2023-03-01T09:38:12;100293.72;;;10.78
49785;BMP280;35679;38.732;-121.358;2023-03-01T09:41:08;100289.44;;;10.77
49785;BMP280;35679;38.732;-121.358;2023-03-01T09:44:10;100295.53;;;10.77
49785;BMP280;35679;38.732;-121.358;2023-03-01T09:47:00;100302.81;;;10.75
49785;BMP280;35679;38.732;-121.358;2023-03-01T09:50:12;100312.53;;;10.75
49785;BMP280;35679;38.732;-121.358;2023-03-01T09:53:09;100320.63;;;10.73
49785;BMP280;35679;38.732;-121.358;2023-03-01T10:08:58;100322.19;;;10.68
49785;BMP280;35679;38.732;-121.358;2023-03-01T10:11:53;100322.34;;;10.66
49785;BMP280;35679;38.732;-121.358;2023-03-01T10:15:11;100316.44;;;10.64
49785;BMP280;35679;38.732;-121.358;2023-03-01T10:18:22;100315.44;;;10.65
49785;BMP280;35679;38.732;-121.358;2023-03-01T10:21:18;100321.53;;;10.66
49785;BMP280;35679;38.732;-121.358;2023-03-01T10:24:13;100327.97;;;10.63
49785;BMP280;35679;38.732;-121.358;2023-03-01T10:27:12;100323.50;;;10.64
49785;BMP280;35679;38.732;-121.358;2023-03-01T10:32:57;100316.94;;;10.60
49785;BMP280;35679;38.732;-121.358;2023-03-01T10:35:46;100325.69;;;10.60
49785;BMP280;35679;38.732;-121.358;2023-03-01T10:38:56;100322.41;;;10.58
49785;BMP280;35679;38.732;-121.358;2023-03-01T10:44:46;100327.69;;;10.58
49785;BMP280;35679;38.732;-121.358;2023-03-01T10:47:35;100322.22;;;10.60
49785;BMP280;35679;38.732;-121.358;2023-03-01T10:50:25;100317.31;;;10.57
49785;BMP280;35679;38.732;-121.358;2023-03-01T10:53:36;100311.03;;;10.58
49785;BMP280;35679;38.732;-121.358;2023-03-01T10:56:26;100313.22;;;10.54
49785;BMP280;35679;38.732;-121.358;2023-03-01T10:59:35;100304.66;;;10.52
49785;BMP280;35679;38.732;-121.358;2023-03-01T11:02:29;100301.19;;;10.52
49785;BMP280;35679;38.732;-121.358;2023-03-01T11:05:23;100301.19;;;10.52
49785;BMP280;35679;38.732;-121.358;2023-03-01T11:08:39;100299.38;;;10.52
49785;BMP280;35679;38.732;-121.358;2023-03-01T11:11:34;100300.38;;;10.51
49785;BMP280;35679;38.732;-121.358;2023-03-01T11:14:26;100308.47;;;10.50
49785;BMP280;35679;38.732;-121.358;2023-03-01T11:20:17;100294.00;;;10.46
49785;BMP280;35679;38.732;-121.358;2023-03-01T11:23:13;100296.81;;;10.45
49785;BMP280;35679;38.732;-121.358;2023-03-01T11:26:06;100299.44;;;10.45
49785;BMP280;35679;38.732;-121.358;2023-03-01T11:29:05;100299.44;;;10.45
49785;BMP280;35679;38.732;-121.358;2023-03-01T11:32:02;100295.34;;;10.42
49785;BMP280;35679;38.732;-121.358;2023-03-01T11:35:04;100297.63;;;10.45
49785;BMP280;35679;38.732;-121.358;2023-03-01T11:41:27;100298.78;;;10.43
49785;BMP280;35679;38.732;-121.358;2023-03-01T11:44:24;100294.88;;;10.39
49785;BMP280;35679;38.732;-121.358;2023-03-01T11:50:44;100302.59;;;10.40
49785;BMP280;35679;38.732;-121.358;2023-03-01T11:57:45;100306.59;;;10.36
49785;BMP280;35679;38.732;-121.358;2023-03-01T12:07:27;100323.22;;;10.37
49785;BMP280;35679;38.732;-121.358;2023-03-01T12:20:28;100340.72;;;10.30
49785;BMP280;35679;38.732;-121.358;2023-03-01T12:23:44;100346.34;;;10.27
49785;BMP280;35679;38.732;-121.358;2023-03-01T12:33:21;100358.06;;;10.24
49785;BMP280;35679;38.732;-121.358;2023-03-01T12:42:54;100366.97;;;10.23
49785;BMP280;35679;38.732;-121.358;2023-03-01T12:46:04;100372.25;;;10.23
49785;BMP280;35679;38.732;-121.358;2023-03-01T12:49:13;100378.69;;;10.21
49785;BMP280;35679;38.732;-121.358;2023-03-01T12:52:18;100392.84;;;10.20
49785;BMP280;35679;38.732;-121.358;2023-03-01T12:55:39;100397.50;;;10.18
49785;BMP280;35679;38.732;-121.358;2023-03-01T12:58:34;100400.31;;;10.16
49785;BMP280;35679;38.732;-121.358;2023-03-01T13:08:05;100414.59;;;10.22
49785;BMP280;35679;38.732;-121.358;2023-03-01T13:11:06;100418.41;;;10.19
49785;BMP280;35679;38.732;-121.358;2023-03-01T13:17:40;100426.50;;;10.18
49785;BMP280;35679;38.732;-121.358;2023-03-01T13:23:37;100440.00;;;10.15
49785;BMP280;35679;38.732;-121.358;2023-03-01T13:26:27;100439.00;;;10.16
49785;BMP280;35679;38.732;-121.358;2023-03-01T13:29:27;100446.25;;;10.14
49785;BMP280;35679;38.732;-121.358;2023-03-01T13:32:24;100444.78;;;10.11
49785;BMP280;35679;38.732;-121.358;2023-03-01T13:35:43;100447.78;;;10.08
49785;BMP280;35679;38.732;-121.358;2023-03-01T13:44:36;100480.88;;;10.11
49785;BMP280;35679;38.732;-121.358;2023-03-01T13:47:38;100473.63;;;10.13
49785;BMP280;35679;38.732;-121.358;2023-03-01T13:50:29;100485.66;;;10.07
49785;BMP280;35679;38.732;-121.358;2023-03-01T13:53:24;100479.41;;;10.08
49785;BMP280;35679;38.732;-121.358;2023-03-01T13:56:29;100492.56;;;10.08
49785;BMP280;35679;38.732;-121.358;2023-03-01T13:59:22;100506.91;;;10.06
49785;BMP280;35679;38.732;-121.358;2023-03-01T14:02:15;100511.19;;;10.07
49785;BMP280;35679;38.732;-121.358;2023-03-01T14:05:09;100521.09;;;10.05
49785;BMP280;35679;38.732;-121.358;2023-03-01T14:07:58;100528.00;;;10.06
49785;BMP280;35679;38.732;-121.358;2023-03-01T14:17:32;100542.81;;;9.99
49785;BMP280;35679;38.732;-121.358;2023-03-01T14:20:33;100542.69;;;10.00
49785;BMP280;35679;38.732;-121.358;2023-03-01T14:23:26;100542.69;;;10.00
49785;BMP280;35679;38.732;-121.358;2023-03-01T14:26:21;100552.38;;;10.00
49785;BMP280;35679;38.732;-121.358;2023-03-01T14:29:28;100556.84;;;9.99
49785;BMP280;35679;38.732;-121.358;2023-03-01T14:32:25;100551.91;;;9.96
49785;BMP280;35679;38.732;-121.358;2023-03-01T14:35:25;100550.91;;;9.97
49785;BMP280;35679;38.732;-121.358;2023-03-01T14:38:43;100557.31;;;9.95
49785;BMP280;35679;38.732;-121.358;2023-03-01T14:41:34;100554.00;;;9.93
49785;BMP280;35679;38.732;-121.358;2023-03-01T14:44:28;100559.94;;;9.95
49785;BMP280;35679;38.732;-121.358;2023-03-01T14:47:32;100574.09;;;9.94
49785;BMP280;35679;38.732;-121.358;2023-03-01T14:50:32;100575.75;;;9.95
49785;BMP280;35679;38.732;-121.358;2023-03-01T14:53:34;100590.91;;;9.93
49785;BMP280;35679;38.732;-121.358;2023-03-01T14:56:46;100584.81;;;9.92
49785;BMP280;35679;38.732;-121.358;2023-03-01T14:59:35;100594.19;;;9.95
49785;BMP280;35679;38.732;-121.358;2023-03-01T15:02:26;100582.69;;;9.96
49785;BMP280;35679;38.732;-121.358;2023-03-01T15:05:24;100592.53;;;9.94
49785;BMP280;35679;38.732;-121.358;2023-03-01T15:08:27;100584.19;;;9.98
49785;BMP280;35679;38.732;-121.358;2023-03-01T15:11:33;100596.56;;;9.98
49785;BMP280;35679;38.732;-121.358;2023-03-01T15:14:42;100601.81;;;9.98
49785;BMP280;35679;38.732;-121.358;2023-03-01T15:17:48;100606.41;;;9.96
49785;BMP280;35679;38.732;-121.358;2023-03-01T15:20:39;100621.41;;;9.95
49785;BMP280;35679;38.732;-121.358;2023-03-01T15:23:29;100626.53;;;9.97
49785;BMP280;35679;38.732;-121.358;2023-03-01T15:26:30;100638.56;;;9.99
49785;BMP280;35679;38.732;-121.358;2023-03-01T15:29:27;100654.69;;;9.96
49785;BMP280;35679;38.732;-121.358;2023-03-01T15:32:31;100665.88;;;9.98
49785;BMP280;35679;38.732;-121.358;2023-03-01T15:35:40;100666.03;;;10.05
49785;BMP280;35679;38.732;-121.358;2023-03-01T15:38:55;100672.16;;;10.05
49785;BMP280;35679;38.732;-121.358;2023-03-01T15:41:47;100661.44;;;10.07
49785;BMP280;35679;38.732;-121.358;2023-03-01T15:44:39;100664.38;;;10.04
49785;BMP280;35679;38.732;-121.358;2023-03-01T15:47:31;100678.06;;;10.07
49785;BMP280;35679;38.732;-121.358;2023-03-01T15:53:14;100684.66;;;10.03
49785;BMP280;35679;38.732;-121.358;2023-03-01T15:56:04;100698.66;;;10.04
49785;BMP280;35679;38.732;-121.358;2023-03-01T15:59:02;100703.94;;;10.04
49785;BMP280;35679;38.732;-121.358;2023-03-01T16:01:52;100714.63;;;10.02
49785;BMP280;35679;38.732;-121.358;2023-03-01T16:04:41;100719.75;;;10.04
49785;BMP280;35679;38.732;-121.358;2023-03-01T16:07:31;100734.25;;;10.00
49785;BMP280;35679;38.732;-121.358;2023-03-01T16:10:20;100740.19;;;10.02
49785;BMP280;35679;38.732;-121.358;2023-03-01T16:13:11;100733.59;;;9.98
49785;BMP280;35679;38.732;-121.358;2023-03-01T16:16:01;100724.38;;;10.02
49785;BMP280;35679;38.732;-121.358;2023-03-01T16:18:51;100735.72;;;10.02
49785;BMP280;35679;38.732;-121.358;2023-03-01T16:21:42;100731.59;;;10.00
49785;BMP280;35679;38.732;-121.358;2023-03-01T16:24:35;100741.34;;;9.99
49785;BMP280;35679;38.732;-121.358;2023-03-01T16:27:24;100739.84;;;9.97
49785;BMP280;35679;38.732;-121.358;2023-03-01T16:30:15;100742.16;;;10.00
49785;BMP280;35679;38.732;-121.358;2023-03-01T16:33:05;100741.00;;;10.02
49785;BMP280;35679;38.732;-121.358;2023-03-01T16:36:13;100744.47;;;10.03
49785;BMP280;35679;38.732;-121.358;2023-03-01T16:39:02;100746.78;;;9.98
49785;BMP280;35679;38.732;-121.358;2023-03-01T16:41:52;100751.34;;;9.96
49785;BMP280;35679;38.732;-121.358;2023-03-01T16:44:41;100761.22;;;9.94
49785;BMP280;35679;38.732;-121.358;2023-03-01T16:47:31;100766.34;;;9.95
49785;BMP280;35679;38.732;-121.358;2023-03-01T16:50:22;100765.50;;;9.95
49785;BMP280;35679;38.732;-121.358;2023-03-01T16:53:13;100771.59;;;9.95
49785;BMP280;35679;38.732;-121.358;2023-03-01T16:56:05;100779.88;;;10.00
49785;BMP280;35679;38.732;-121.358;2023-03-01T16:58:56;100767.16;;;9.96
49785;BMP280;35679;38.732;-121.358;2023-03-01T17:01:47;100766.34;;;9.95
49785;BMP280;35679;38.732;-121.358;2023-03-01T17:04:37;100776.03;;;9.95
49785;BMP280;35679;38.732;-121.358;2023-03-01T17:07:26;100776.88;;;9.95
49785;BMP280;35679;38.732;-121.358;2023-03-01T17:10:16;100776.75;;;9.97
49785;BMP280;35679;38.732;-121.358;2023-03-01T17:13:05;100776.03;;;9.95
49785;BMP280;35679;38.732;-121.358;2023-03-01T17:15:55;100778.41;;;9.98
49785;BMP280;35679;38.732;-121.358;2023-03-01T17:18:46;100783.50;;;9.99
49785;BMP280;35679;38.732;-121.358;2023-03-01T17:21:36;100776.56;;;9.98
49785;BMP280;35679;38.732;-121.358;2023-03-01T17:24:25;100788.44;;;10.02